sensor_id;sensor_type;location;lat;lon;timestamp;P1;durP1;ratioP1;P2;durP2;ratioP2
24335;SDS011;33098;52.400;16.880;2023-04-19T00:01:44;5.80;;;4.10;;
24335;SDS011;33098;52.400;16.880;2023-04-19T00:04:11;6.20;;;4.30;;
24335;SDS011;33098;52.400;16.880;2023-04-19T00:06:40;6.00;;;4.20;;
24335;SDS011;33098;52.400;16.880;2023-04-19T00:09:09;5.80;;;3.80;;
24335;SDS011;33098;52.400;16.880;2023-04-19T00:11:36;6.90;;;3.90;;
24335;SDS011;33098;52.400;16.880;2023-04-19T00:14:05;5.20;;;3.70;;
24335;SDS011;33098;52.400;16.880;2023-04-19T00:16:35;5.60;;;3.80;;
24335;SDS011;33098;52.400;16.880;2023-04-19T00:19:02;6.60;;;3.30;;
24335;SDS011;33098;52.400;16.880;2023-04-19T00:21:29;6.20;;;3.60;;
24335;SDS011;33098;52.400;16.880;2023-04-19T00:23:58;8.70;;;3.70;;
24335;SDS011;33098;52.400;16.880;2023-04-19T00:26:24;9.40;;;3.70;;
24335;SDS011;33098;52.400;16.880;2023-04-19T00:28:52;7.10;;;3.70;;
24335;SDS011;33098;52.400;16.880;2023-04-19T00:31:18;5.80;;;4.00;;
24335;SDS011;33098;52.400;16.880;2023-04-19T00:33:45;7.50;;;3.80;;
24335;SDS011;33098;52.400;16.880;2023-04-19T00:36:13;5.30;;;3.90;;
24335;SDS011;33098;52.400;16.880;2023-04-19T00:38:42;4.30;;;3.50;;
24335;SDS011;33098;52.400;16.880;2023-04-19T00:41:11;5.30;;;3.70;;
24335;SDS011;33098;52.400;16.880;2023-04-19T00:43:38;5.30;;;3.20;;
24335;SDS011;33098;52.400;16.880;2023-04-19T00:46:06;5.20;;;3.50;;
24335;SDS011;33098;52.400;16.880;2023-04-19T00:48:33;5.80;;;3.30;;
24335;SDS011;33098;52.400;16.880;2023-04-19T00:51:01;4.60;;;3.20;;
24335;SDS011;33098;52.400;16.880;2023-04-19T00:53:29;6.40;;;3.30;;
24335;SDS011;33098;52.400;16.880;2023-04-19T00:55:56;7.50;;;3.80;;
24335;SDS011;33098;52.400;16.880;2023-04-19T00:58:27;6.20;;;3.20;;
24335;SDS011;33098;52.400;16.880;2023-04-19T01:00:59;6.30;;;3.10;;
24335;SDS011;33098;52.400;16.880;2023-04-19T01:03:26;5.50;;;3.20;;
24335;SDS011;33098;52.400;16.880;2023-04-19T01:05:52;4.90;;;2.80;;
24335;SDS011;33098;52.400;16.880;2023-04-19T01:08:22;5.00;;;3.10;;
24335;SDS011;33098;52.400;16.880;2023-04-19T01:10:53;5.90;;;2.90;;
24335;SDS011;33098;52.400;16.880;2023-04-19T01:13:20;5.60;;;3.10;;
24335;SDS011;33098;52.400;16.880;2023-04-19T01:15:48;5.20;;;2.90;;
24335;SDS011;33098;52.400;16.880;2023-04-19T01:18:17;6.30;;;3.30;;
24335;SDS011;33098;52.400;16.880;2023-04-19T01:20:46;4.80;;;3.10;;
24335;SDS011;33098;52.400;16.880;2023-04-19T01:23:12;6.30;;;3.20;;
24335;SDS011;33098;52.400;16.880;2023-04-19T01:25:45;5.80;;;3.00;;
24335;SDS011;33098;52.400;16.880;2023-04-19T01:28:13;4.50;;;2.90;;
24335;SDS011;33098;52.400;16.880;2023-04-19T01:30:40;5.90;;;3.20;;
24335;SDS011;33098;52.400;16.880;2023-04-19T01:33:06;6.80;;;3.10;;
24335;SDS011;33098;52.400;16.880;2023-04-19T01:35:33;4.60;;;3.10;;
24335;SDS011;33098;52.400;16.880;2023-04-19T01:38:02;5.30;;;3.10;;
24335;SDS011;33098;52.400;16.880;2023-04-19T01:40:31;4.60;;;2.70;;
24335;SDS011;33098;52.400;16.880;2023-04-19T01:42:58;4.40;;;2.70;;
24335;SDS011;33098;52.400;16.880;2023-04-19T01:45:25;4.40;;;3.10;;
24335;SDS011;33098;52.400;16.880;2023-04-19T01:47:52;7.20;;;2.90;;
24335;SDS011;33098;52.400;16.880;2023-04-19T01:50:19;4.80;;;3.00;;
24335;SDS011;33098;52.400;16.880;2023-04-19T01:52:45;5.30;;;3.10;;
24335;SDS011;33098;52.400;16.880;2023-04-19T01:55:12;4.10;;;2.70;;
24335;SDS011;33098;52.400;16.880;2023-04-19T01:57:39;5.00;;;2.60;;
24335;SDS011;33098;52.400;16.880;2023-04-19T02:00:07;4.30;;;3.00;;
24335;SDS011;33098;52.400;16.880;2023-04-19T02:02:40;3.70;;;2.60;;
24335;SDS011;33098;52.400;16.880;2023-04-19T02:05:07;5.90;;;2.60;;
24335;SDS011;33098;52.400;16.880;2023-04-19T02:07:34;6.30;;;2.90;;
24335;SDS011;33098;52.400;16.880;2023-04-19T02:10:01;6.10;;;3.00;;
24335;SDS011;33098;52.400;16.880;2023-04-19T02:12:28;7.20;;;3.20;;
24335;SDS011;33098;52.400;16.880;2023-04-19T02:14:59;4.00;;;2.80;;
24335;SDS011;33098;52.400;16.880;2023-04-19T02:17:35;4.90;;;2.80;;
24335;SDS011;33098;52.400;16.880;2023-04-19T02:20:02;5.20;;;3.00;;
24335;SDS011;33098;52.400;16.880;2023-04-19T02:22:30;4.00;;;2.80;;
24335;SDS011;33098;52.400;16.880;2023-04-19T02:24:56;5.10;;;2.70;;
24335;SDS011;33098;52.400;16.880;2023-04-19T02:27:27;6.10;;;2.90;;
24335;SDS011;33098;52.400;16.880;2023-04-19T02:29:54;5.40;;;2.90;;
24335;SDS011;33098;52.400;16.880;2023-04-19T02:32:22;5.30;;;2.80;;
24335;SDS011;33098;52.400;16.880;2023-04-19T02:34:48;6.00;;;2.90;;
24335;SDS011;33098;52.400;16.880;2023-04-19T02:37:15;5.80;;;2.60;;
24335;SDS011;33098;52.400;16.880;2023-04-19T02:39:43;4.90;;;2.70;;
24335;SDS011;33098;52.400;16.880;2023-04-19T02:42:16;4.20;;;2.80;;
24335;SDS011;33098;52.400;16.880;2023-04-19T02:44:43;5.60;;;2.90;;
24335;SDS011;33098;52.400;16.880;2023-04-19T02:47:10;5.30;;;3.00;;
24335;SDS011;33098;52.400;16.880;2023-04-19T02:49:36;4.00;;;2.40;;
24335;SDS011;33098;52.400;16.880;2023-04-19T02:52:07;4.80;;;2.70;;
24335;SDS011;33098;52.400;16.880;2023-04-19T02:54:34;5.50;;;2.70;;
24335;SDS011;33098;52.400;16.880;2023-04-19T02:57:04;5.50;;;2.90;;
24335;SDS011;33098;52.400;16.880;2023-04-19T02:59:31;6.50;;;3.00;;
24335;SDS011;33098;52.400;16.880;2023-04-19T03:01:59;6.20;;;2.70;;
24335;SDS011;33098;52.400;16.880;2023-04-19T03:04:26;4.90;;;2.70;;
24335;SDS011;33098;52.400;16.880;2023-04-19T03:06:57;3.70;;;2.50;;
24335;SDS011;33098;52.400;16.880;2023-04-19T03:09:24;4.10;;;2.50;;
24335;SDS011;33098;52.400;16.880;2023-04-19T03:11:52;4.80;;;2.50;;
24335;SDS011;33098;52.400;16.880;2023-04-19T03:14:19;6.80;;;3.20;;
24335;SDS011;33098;52.400;16.880;2023-04-19T03:16:47;3.70;;;2.40;;
24335;SDS011;33098;52.400;16.880;2023-04-19T03:19:14;4.30;;;2.70;;
24335;SDS011;33098;52.400;16.880;2023-04-19T03:21:46;3.80;;;2.40;;
24335;SDS011;33098;52.400;16.880;2023-04-19T03:24:13;5.10;;;2.60;;
24335;SDS011;33098;52.400;16.880;2023-04-19T03:26:46;4.80;;;2.80;;
24335;SDS011;33098;52.400;16.880;2023-04-19T03:29:16;3.40;;;2.50;;
24335;SDS011;33098;52.400;16.880;2023-04-19T03:31:51;5.50;;;2.60;;
24335;SDS011;33098;52.400;16.880;2023-04-19T03:34:18;5.30;;;2.60;;
24335;SDS011;33098;52.400;16.880;2023-04-19T03:36:46;5.40;;;2.80;;
24335;SDS011;33098;52.400;16.880;2023-04-19T03:39:13;5.40;;;2.80;;
24335;SDS011;33098;52.400;16.880;2023-04-19T03:41:40;5.20;;;2.60;;
24335;SDS011;33098;52.400;16.880;2023-04-19T03:44:16;5.50;;;2.70;;
24335;SDS011;33098;52.400;16.880;2023-04-19T03:46:46;5.80;;;2.60;;
24335;SDS011;33098;52.400;16.880;2023-04-19T03:49:16;5.90;;;2.80;;
24335;SDS011;33098;52.400;16.880;2023-04-19T03:51:45;4.30;;;2.50;;
24335;SDS011;33098;52.400;16.880;2023-04-19T03:54:12;7.50;;;3.10;;
24335;SDS011;33098;52.400;16.880;2023-04-19T03:56:39;6.50;;;2.80;;
24335;SDS011;33098;52.400;16.880;2023-04-19T03:59:06;6.30;;;3.30;;
24335;SDS011;33098;52.400;16.880;2023-04-19T04:01:38;6.60;;;3.10;;
24335;SDS011;33098;52.400;16.880;2023-04-19T04:04:07;5.40;;;3.00;;
24335;SDS011;33098;52.400;16.880;2023-04-19T04:06:37;6.90;;;3.40;;
24335;SDS011;33098;52.400;16.880;2023-04-19T04:09:06;6.00;;;3.00;;
24335;SDS011;33098;52.400;16.880;2023-04-19T04:11:34;4.90;;;3.00;;
24335;SDS011;33098;52.400;16.880;2023-04-19T04:14:07;4.10;;;3.10;;
24335;SDS011;33098;52.400;16.880;2023-04-19T04:16:37;6.70;;;3.40;;
24335;SDS011;33098;52.400;16.880;2023-04-19T04:19:07;7.50;;;3.40;;
24335;SDS011;33098;52.400;16.880;2023-04-19T04:21:36;5.20;;;3.10;;
24335;SDS011;33098;52.400;16.880;2023-04-19T04:24:03;5.10;;;3.00;;
24335;SDS011;33098;52.400;16.880;2023-04-19T04:26:36;5.70;;;3.10;;
24335;SDS011;33098;52.400;16.880;2023-04-19T04:29:13;7.70;;;3.00;;
24335;SDS011;33098;52.400;16.880;2023-04-19T04:31:45;6.90;;;4.00;;
24335;SDS011;33098;52.400;16.880;2023-04-19T04:36:48;6.40;;;3.10;;
24335;SDS011;33098;52.400;16.880;2023-04-19T04:39:16;7.90;;;3.30;;
24335;SDS011;33098;52.400;16.880;2023-04-19T04:41:43;5.10;;;3.20;;
24335;SDS011;33098;52.400;16.880;2023-04-19T04:44:11;7.70;;;2.80;;
24335;SDS011;33098;52.400;16.880;2023-04-19T04:46:43;5.50;;;3.50;;
24335;SDS011;33098;52.400;16.880;2023-04-19T04:49:14;5.90;;;3.30;;
24335;SDS011;33098;52.400;16.880;2023-04-19T04:51:41;5.50;;;3.20;;
24335;SDS011;33098;52.400;16.880;2023-04-19T04:54:11;6.70;;;3.50;;
24335;SDS011;33098;52.400;16.880;2023-04-19T04:56:38;5.00;;;3.10;;
24335;SDS011;33098;52.400;16.880;2023-04-19T04:59:05;5.50;;;3.30;;
24335;SDS011;33098;52.400;16.880;2023-04-19T05:01:36;6.10;;;3.20;;
24335;SDS011;33098;52.400;16.880;2023-04-19T05:04:05;5.50;;;3.10;;
24335;SDS011;33098;52.400;16.880;2023-04-19T05:06:32;6.20;;;3.30;;
24335;SDS011;33098;52.400;16.880;2023-04-19T05:08:59;6.50;;;3.20;;
24335;SDS011;33098;52.400;16.880;2023-04-19T05:11:32;6.80;;;3.30;;
24335;SDS011;33098;52.400;16.880;2023-04-19T05:13:59;6.70;;;3.30;;
24335;SDS011;33098;52.400;16.880;2023-04-19T05:16:34;8.10;;;3.40;;
24335;SDS011;33098;52.400;16.880;2023-04-19T05:19:03;8.70;;;3.40;;
24335;SDS011;33098;52.400;16.880;2023-04-19T05:21:37;7.40;;;3.60;;
24335;SDS011;33098;52.400;16.880;2023-04-19T05:24:07;6.80;;;4.10;;
24335;SDS011;33098;52.400;16.880;2023-04-19T05:26:35;7.30;;;4.00;;
24335;SDS011;33098;52.400;16.880;2023-04-19T05:29:04;7.50;;;4.20;;
24335;SDS011;33098;52.400;16.880;2023-04-19T05:31:49;8.40;;;4.30;;
24335;SDS011;33098;52.400;16.880;2023-04-19T05:34:19;7.20;;;4.40;;
24335;SDS011;33098;52.400;16.880;2023-04-19T05:36:49;6.70;;;4.10;;
24335;SDS011;33098;52.400;16.880;2023-04-19T05:39:16;7.10;;;3.50;;
24335;SDS011;33098;52.400;16.880;2023-04-19T05:41:44;7.70;;;4.00;;
24335;SDS011;33098;52.400;16.880;2023-04-19T05:44:16;6.70;;;4.00;;
24335;SDS011;33098;52.400;16.880;2023-04-19T05:46:43;7.90;;;4.30;;
24335;SDS011;33098;52.400;16.880;2023-04-19T05:49:16;6.50;;;3.80;;
24335;SDS011;33098;52.400;16.880;2023-04-19T05:52:00;6.20;;;3.80;;
24335;SDS011;33098;52.400;16.880;2023-04-19T05:54:36;8.50;;;3.90;;
24335;SDS011;33098;52.400;16.880;2023-04-19T05:59:33;7.40;;;3.80;;
24335;SDS011;33098;52.400;16.880;2023-04-19T06:02:00;6.50;;;3.90;;
24335;SDS011;33098;52.400;16.880;2023-04-19T06:04:27;7.20;;;3.90;;
24335;SDS011;33098;52.400;16.880;2023-04-19T06:06:54;8.00;;;4.30;;
24335;SDS011;33098;52.400;16.880;2023-04-19T06:09:23;9.70;;;4.30;;
24335;SDS011;33098;52.400;16.880;2023-04-19T06:11:53;8.30;;;3.90;;
24335;SDS011;33098;52.400;16.880;2023-04-19T06:14:20;7.30;;;3.60;;
24335;SDS011;33098;52.400;16.880;2023-04-19T06:16:47;8.20;;;4.30;;
24335;SDS011;33098;52.400;16.880;2023-04-19T06:19:14;8.20;;;4.30;;
24335;SDS011;33098;52.400;16.880;2023-04-19T06:21:47;4.80;;;3.30;;
24335;SDS011;33098;52.400;16.880;2023-04-19T06:24:17;8.60;;;3.40;;
24335;SDS011;33098;52.400;16.880;2023-04-19T06:26:44;7.40;;;3.80;;
24335;SDS011;33098;52.400;16.880;2023-04-19T06:29:13;7.80;;;3.60;;
24335;SDS011;33098;52.400;16.880;2023-04-19T06:31:39;10.20;;;4.20;;
24335;SDS011;33098;52.400;16.880;2023-04-19T06:34:06;6.00;;;3.70;;
24335;SDS011;33098;52.400;16.880;2023-04-19T06:36:33;6.00;;;3.60;;
24335;SDS011;33098;52.400;16.880;2023-04-19T06:39:00;6.00;;;3.80;;
24335;SDS011;33098;52.400;16.880;2023-04-19T06:41:28;7.80;;;3.90;;
24335;SDS011;33098;52.400;16.880;2023-04-19T06:43:55;6.10;;;3.60;;
24335;SDS011;33098;52.400;16.880;2023-04-19T06:46:24;7.20;;;3.70;;
24335;SDS011;33098;52.400;16.880;2023-04-19T06:48:55;7.00;;;4.30;;
24335;SDS011;33098;52.400;16.880;2023-04-19T06:51:28;9.00;;;4.20;;
24335;SDS011;33098;52.400;16.880;2023-04-19T06:54:01;7.20;;;4.00;;
24335;SDS011;33098;52.400;16.880;2023-04-19T06:56:41;8.70;;;4.20;;
24335;SDS011;33098;52.400;16.880;2023-04-19T06:59:17;6.20;;;3.80;;
24335;SDS011;33098;52.400;16.880;2023-04-19T07:01:50;8.00;;;3.80;;
24335;SDS011;33098;52.400;16.880;2023-04-19T07:04:24;8.60;;;4.30;;
24335;SDS011;33098;52.400;16.880;2023-04-19T07:07:08;6.50;;;4.60;;
24335;SDS011;33098;52.400;16.880;2023-04-19T07:09:39;8.10;;;4.80;;
24335;SDS011;33098;52.400;16.880;2023-04-19T07:12:06;8.60;;;4.60;;
24335;SDS011;33098;52.400;16.880;2023-04-19T07:14:35;7.00;;;4.50;;
24335;SDS011;33098;52.400;16.880;2023-04-19T07:17:03;8.00;;;4.50;;
24335;SDS011;33098;52.400;16.880;2023-04-19T07:19:31;7.20;;;4.70;;
24335;SDS011;33098;52.400;16.880;2023-04-19T07:22:01;6.80;;;4.40;;
24335;SDS011;33098;52.400;16.880;2023-04-19T07:24:28;5.70;;;4.00;;
24335;SDS011;33098;52.400;16.880;2023-04-19T07:26:56;6.70;;;4.00;;
24335;SDS011;33098;52.400;16.880;2023-04-19T07:29:23;6.90;;;4.30;;
24335;SDS011;33098;52.400;16.880;2023-04-19T07:31:52;6.50;;;4.10;;
24335;SDS011;33098;52.400;16.880;2023-04-19T07:34:21;8.90;;;4.30;;
24335;SDS011;33098;52.400;16.880;2023-04-19T07:36:48;8.10;;;4.00;;
24335;SDS011;33098;52.400;16.880;2023-04-19T07:39:15;8.80;;;4.30;;
24335;SDS011;33098;52.400;16.880;2023-04-19T07:41:44;7.60;;;4.40;;
24335;SDS011;33098;52.400;16.880;2023-04-19T07:44:12;8.10;;;4.60;;
24335;SDS011;33098;52.400;16.880;2023-04-19T07:46:42;7.40;;;4.30;;
24335;SDS011;33098;52.400;16.880;2023-04-19T07:49:12;9.40;;;4.40;;
24335;SDS011;33098;52.400;16.880;2023-04-19T07:51:39;6.90;;;4.00;;
24335;SDS011;33098;52.400;16.880;2023-04-19T07:54:06;6.70;;;3.90;;
24335;SDS011;33098;52.400;16.880;2023-04-19T07:56:35;7.20;;;4.50;;
24335;SDS011;33098;52.400;16.880;2023-04-19T07:59:01;8.10;;;4.50;;
24335;SDS011;33098;52.400;16.880;2023-04-19T08:01:28;8.40;;;4.30;;
24335;SDS011;33098;52.400;16.880;2023-04-19T08:03:57;9.60;;;5.30;;
24335;SDS011;33098;52.400;16.880;2023-04-19T08:06:24;9.80;;;4.80;;
24335;SDS011;33098;52.400;16.880;2023-04-19T08:08:52;10.30;;;4.40;;
24335;SDS011;33098;52.400;16.880;2023-04-19T08:11:19;6.40;;;4.30;;
24335;SDS011;33098;52.400;16.880;2023-04-19T08:13:46;8.80;;;4.50;;
24335;SDS011;33098;52.400;16.880;2023-04-19T08:16:14;9.80;;;4.30;;
24335;SDS011;33098;52.400;16.880;2023-04-19T08:18:42;7.70;;;4.10;;
24335;SDS011;33098;52.400;16.880;2023-04-19T08:21:11;7.80;;;4.20;;
24335;SDS011;33098;52.400;16.880;2023-04-19T08:23:39;9.10;;;4.60;;
24335;SDS011;33098;52.400;16.880;2023-04-19T08:26:06;9.00;;;4.40;;
24335;SDS011;33098;52.400;16.880;2023-04-19T08:28:36;7.70;;;4.10;;
24335;SDS011;33098;52.400;16.880;2023-04-19T08:31:06;8.40;;;4.30;;
24335;SDS011;33098;52.400;16.880;2023-04-19T08:33:33;6.10;;;4.20;;
24335;SDS011;33098;52.400;16.880;2023-04-19T08:36:03;9.40;;;4.30;;
24335;SDS011;33098;52.400;16.880;2023-04-19T08:38:30;6.20;;;4.10;;
24335;SDS011;33098;52.400;16.880;2023-04-19T08:40:57;7.40;;;4.30;;
24335;SDS011;33098;52.400;16.880;2023-04-19T08:43:27;9.30;;;4.70;;
24335;SDS011;33098;52.400;16.880;2023-04-19T08:45:58;9.80;;;4.70;;
24335;SDS011;33098;52.400;16.880;2023-04-19T08:48:25;6.60;;;4.10;;
24335;SDS011;33098;52.400;16.880;2023-04-19T08:50:53;7.60;;;4.80;;
24335;SDS011;33098;52.400;16.880;2023-04-19T08:53:25;9.30;;;4.60;;
24335;SDS011;33098;52.400;16.880;2023-04-19T08:55:57;7.10;;;4.00;;
24335;SDS011;33098;52.400;16.880;2023-04-19T08:58:26;8.00;;;4.50;;
24335;SDS011;33098;52.400;16.880;2023-04-19T09:00:58;8.00;;;4.40;;
24335;SDS011;33098;52.400;16.880;2023-04-19T09:03:25;7.00;;;4.10;;
24335;SDS011;33098;52.400;16.880;2023-04-19T09:05:54;8.40;;;4.30;;
24335;SDS011;33098;52.400;16.880;2023-04-19T09:08:28;8.70;;;4.30;;
24335;SDS011;33098;52.400;16.880;2023-04-19T09:11:00;9.10;;;4.90;;
24335;SDS011;33098;52.400;16.880;2023-04-19T09:13:28;11.00;;;4.60;;
24335;SDS011;33098;52.400;16.880;2023-04-19T09:15:55;5.80;;;4.40;;
24335;SDS011;33098;52.400;16.880;2023-04-19T09:18:22;8.70;;;4.90;;
24335;SDS011;33098;52.400;16.880;2023-04-19T09:23:28;9.20;;;5.40;;
24335;SDS011;33098;52.400;16.880;2023-04-19T09:25:58;10.80;;;5.10;;
24335;SDS011;33098;52.400;16.880;2023-04-19T09:28:29;8.00;;;5.30;;
24335;SDS011;33098;52.400;16.880;2023-04-19T09:30:57;9.20;;;4.80;;
24335;SDS011;33098;52.400;16.880;2023-04-19T09:33:34;9.30;;;5.30;;
24335;SDS011;33098;52.400;16.880;2023-04-19T09:36:05;9.90;;;5.60;;
24335;SDS011;33098;52.400;16.880;2023-04-19T09:38:45;10.70;;;5.30;;
24335;SDS011;33098;52.400;16.880;2023-04-19T09:41:13;9.80;;;5.20;;
24335;SDS011;33098;52.400;16.880;2023-04-19T09:43:40;7.70;;;4.90;;
24335;SDS011;33098;52.400;16.880;2023-04-19T09:46:34;7.30;;;4.90;;
24335;SDS011;33098;52.400;16.880;2023-04-19T09:49:15;8.40;;;5.30;;
24335;SDS011;33098;52.400;16.880;2023-04-19T09:51:57;9.00;;;4.90;;
24335;SDS011;33098;52.400;16.880;2023-04-19T09:54:24;9.10;;;5.20;;
24335;SDS011;33098;52.400;16.880;2023-04-19T09:56:58;10.20;;;5.50;;
24335;SDS011;33098;52.400;16.880;2023-04-19T09:59:26;9.90;;;5.00;;
24335;SDS011;33098;52.400;16.880;2023-04-19T10:01:56;9.40;;;5.40;;
24335;SDS011;33098;52.400;16.880;2023-04-19T10:04:26;9.30;;;5.80;;
24335;SDS011;33098;52.400;16.880;2023-04-19T10:06:53;10.60;;;5.50;;
24335;SDS011;33098;52.400;16.880;2023-04-19T10:09:23;11.20;;;6.20;;
24335;SDS011;33098;52.400;16.880;2023-04-19T10:11:52;11.50;;;6.30;;
24335;SDS011;33098;52.400;16.880;2023-04-19T10:14:23;11.90;;;6.70;;
24335;SDS011;33098;52.400;16.880;2023-04-19T10:16:51;10.10;;;5.90;;
24335;SDS011;33098;52.400;16.880;2023-04-19T10:19:19;11.60;;;6.10;;
24335;SDS011;33098;52.400;16.880;2023-04-19T10:21:55;10.40;;;6.00;;
24335;SDS011;33098;52.400;16.880;2023-04-19T10:24:22;9.50;;;5.90;;
24335;SDS011;33098;52.400;16.880;2023-04-19T10:32:22;10.60;;;6.30;;
24335;SDS011;33098;52.400;16.880;2023-04-19T10:34:53;7.70;;;5.70;;
24335;SDS011;33098;52.400;16.880;2023-04-19T10:37:24;9.60;;;5.80;;
24335;SDS011;33098;52.400;16.880;2023-04-19T10:39:51;6.40;;;5.40;;
24335;SDS011;33098;52.400;16.880;2023-04-19T10:43:12;10.00;;;5.50;;
24335;SDS011;33098;52.400;16.880;2023-04-19T10:45:38;9.50;;;6.30;;
24335;SDS011;33098;52.400;16.880;2023-04-19T10:48:05;10.40;;;6.40;;
24335;SDS011;33098;52.400;16.880;2023-04-19T10:51:23;9.30;;;5.80;;
24335;SDS011;33098;52.400;16.880;2023-04-19T10:53:54;10.80;;;6.00;;
24335;SDS011;33098;52.400;16.880;2023-04-19T11:01:34;7.40;;;5.50;;
24335;SDS011;33098;52.400;16.880;2023-04-19T11:04:09;8.30;;;6.00;;
24335;SDS011;33098;52.400;16.880;2023-04-19T11:12:03;8.80;;;6.10;;
24335;SDS011;33098;52.400;16.880;2023-04-19T11:14:34;10.70;;;6.60;;
24335;SDS011;33098;52.400;16.880;2023-04-19T11:17:20;10.40;;;6.40;;
24335;SDS011;33098;52.400;16.880;2023-04-19T11:19:57;10.20;;;6.50;;
24335;SDS011;33098;52.400;16.880;2023-04-19T11:22:36;13.70;;;7.40;;
24335;SDS011;33098;52.400;16.880;2023-04-19T11:25:05;13.30;;;7.40;;
24335;SDS011;33098;52.400;16.880;2023-04-19T11:27:38;11.10;;;6.90;;
24335;SDS011;33098;52.400;16.880;2023-04-19T11:30:12;13.20;;;7.60;;
24335;SDS011;33098;52.400;16.880;2023-04-19T11:32:45;9.80;;;7.00;;
24335;SDS011;33098;52.400;16.880;2023-04-19T11:35:18;11.50;;;7.10;;
24335;SDS011;33098;52.400;16.880;2023-04-19T11:37:46;11.20;;;7.40;;
24335;SDS011;33098;52.400;16.880;2023-04-19T11:40:17;12.30;;;7.40;;
24335;SDS011;33098;52.400;16.880;2023-04-19T11:43:01;10.70;;;6.90;;
24335;SDS011;33098;52.400;16.880;2023-04-19T11:45:29;11.40;;;7.40;;
24335;SDS011;33098;52.400;16.880;2023-04-19T11:48:03;13.50;;;7.40;;
24335;SDS011;33098;52.400;16.880;2023-04-19T11:50:42;11.80;;;7.30;;
24335;SDS011;33098;52.400;16.880;2023-04-19T11:53:16;10.00;;;6.90;;
24335;SDS011;33098;52.400;16.880;2023-04-19T11:55:49;8.60;;;6.60;;
24335;SDS011;33098;52.400;16.880;2023-04-19T12:01:09;7.90;;;6.50;;
24335;SDS011;33098;52.400;16.880;2023-04-19T12:03:44;11.20;;;6.60;;
24335;SDS011;33098;52.400;16.880;2023-04-19T12:06:13;11.20;;;6.40;;
24335;SDS011;33098;52.400;16.880;2023-04-19T12:08:43;12.30;;;7.00;;
24335;SDS011;33098;52.400;16.880;2023-04-19T12:11:14;12.00;;;6.90;;
24335;SDS011;33098;52.400;16.880;2023-04-19T12:13:46;8.70;;;6.20;;
24335;SDS011;33098;52.400;16.880;2023-04-19T12:16:14;10.10;;;6.40;;
24335;SDS011;33098;52.400;16.880;2023-04-19T12:18:41;9.40;;;6.60;;
24335;SDS011;33098;52.400;16.880;2023-04-19T12:21:10;12.20;;;6.60;;
24335;SDS011;33098;52.400;16.880;2023-04-19T12:23:52;8.80;;;6.50;;
24335;SDS011;33098;52.400;16.880;2023-04-19T12:26:29;13.00;;;7.00;;
24335;SDS011;33098;52.400;16.880;2023-04-19T12:28:57;9.00;;;6.70;;
24335;SDS011;33098;52.400;16.880;2023-04-19T12:31:29;12.60;;;7.20;;
24335;SDS011;33098;52.400;16.880;2023-04-19T12:33:59;11.00;;;7.10;;
24335;SDS011;33098;52.400;16.880;2023-04-19T12:36:26;12.60;;;7.70;;
24335;SDS011;33098;52.400;16.880;2023-04-19T12:38:53;11.50;;;7.50;;
24335;SDS011;33098;52.400;16.880;2023-04-19T12:41:23;10.50;;;7.30;;
24335;SDS011;33098;52.400;16.880;2023-04-19T12:43:49;10.70;;;7.30;;
24335;SDS011;33098;52.400;16.880;2023-04-19T12:46:16;10.90;;;7.20;;
24335;SDS011;33098;52.400;16.880;2023-04-19T12:48:43;14.50;;;7.20;;
24335;SDS011;33098;52.400;16.880;2023-04-19T12:51:10;11.70;;;7.10;;
24335;SDS011;33098;52.400;16.880;2023-04-19T12:53:37;11.00;;;7.20;;
24335;SDS011;33098;52.400;16.880;2023-04-19T12:56:04;12.40;;;7.50;;
24335;SDS011;33098;52.400;16.880;2023-04-19T12:58:31;12.40;;;7.50;;
24335;SDS011;33098;52.400;16.880;2023-04-19T13:01:00;9.80;;;6.80;;
24335;SDS011;33098;52.400;16.880;2023-04-19T13:03:27;10.30;;;6.90;;
24335;SDS011;33098;52.400;16.880;2023-04-19T13:05:58;11.40;;;7.30;;
24335;SDS011;33098;52.400;16.880;2023-04-19T13:08:24;12.50;;;7.50;;
24335;SDS011;33098;52.400;16.880;2023-04-19T13:10:51;11.00;;;7.00;;
24335;SDS011;33098;52.400;16.880;2023-04-19T13:13:23;13.20;;;7.00;;
24335;SDS011;33098;52.400;16.880;2023-04-19T13:15:52;10.90;;;7.20;;
24335;SDS011;33098;52.400;16.880;2023-04-19T13:18:21;10.00;;;7.20;;
24335;SDS011;33098;52.400;16.880;2023-04-19T13:20:50;12.30;;;7.50;;
24335;SDS011;33098;52.400;16.880;2023-04-19T13:23:19;11.60;;;8.10;;
24335;SDS011;33098;52.400;16.880;2023-04-19T13:25:46;8.90;;;6.60;;
24335;SDS011;33098;52.400;16.880;2023-04-19T13:28:13;12.00;;;7.10;;
24335;SDS011;33098;52.400;16.880;2023-04-19T13:30:39;8.90;;;7.00;;
24335;SDS011;33098;52.400;16.880;2023-04-19T13:33:06;11.20;;;7.20;;
24335;SDS011;33098;52.400;16.880;2023-04-19T13:35:33;13.00;;;7.60;;
24335;SDS011;33098;52.400;16.880;2023-04-19T13:38:00;8.10;;;6.80;;
24335;SDS011;33098;52.400;16.880;2023-04-19T13:40:27;11.90;;;7.40;;
24335;SDS011;33098;52.400;16.880;2023-04-19T13:42:53;11.80;;;7.40;;
24335;SDS011;33098;52.400;16.880;2023-04-19T13:45:22;11.90;;;7.40;;
24335;SDS011;33098;52.400;16.880;2023-04-19T13:47:52;12.00;;;7.60;;
24335;SDS011;33098;52.400;16.880;2023-04-19T13:50:19;14.10;;;8.70;;
24335;SDS011;33098;52.400;16.880;2023-04-19T13:52:48;13.60;;;8.80;;
24335;SDS011;33098;52.400;16.880;2023-04-19T13:55:15;12.80;;;8.40;;
24335;SDS011;33098;52.400;16.880;2023-04-19T13:57:44;13.70;;;8.10;;
24335;SDS011;33098;52.400;16.880;2023-04-19T14:00:11;15.50;;;8.60;;
24335;SDS011;33098;52.400;16.880;2023-04-19T14:02:41;10.80;;;7.40;;
24335;SDS011;33098;52.400;16.880;2023-04-19T14:05:08;12.50;;;8.60;;
24335;SDS011;33098;52.400;16.880;2023-04-19T14:07:39;15.50;;;9.10;;
24335;SDS011;33098;52.400;16.880;2023-04-19T14:10:07;12.40;;;8.80;;
24335;SDS011;33098;52.400;16.880;2023-04-19T14:12:35;12.70;;;8.50;;
24335;SDS011;33098;52.400;16.880;2023-04-19T14:15:02;12.40;;;8.40;;
24335;SDS011;33098;52.400;16.880;2023-04-19T14:17:29;11.60;;;8.70;;
24335;SDS011;33098;52.400;16.880;2023-04-19T14:19:56;14.10;;;8.30;;
24335;SDS011;33098;52.400;16.880;2023-04-19T14:22:28;11.50;;;8.10;;
24335;SDS011;33098;52.400;16.880;2023-04-19T14:24:55;13.60;;;8.80;;
24335;SDS011;33098;52.400;16.880;2023-04-19T14:27:25;14.60;;;8.70;;
24335;SDS011;33098;52.400;16.880;2023-04-19T14:29:52;11.10;;;8.00;;
24335;SDS011;33098;52.400;16.880;2023-04-19T14:32:19;13.10;;;7.90;;
24335;SDS011;33098;52.400;16.880;2023-04-19T14:34:48;13.60;;;9.30;;
24335;SDS011;33098;52.400;16.880;2023-04-19T14:37:20;11.70;;;8.10;;
24335;SDS011;33098;52.400;16.880;2023-04-19T14:39:50;14.20;;;8.60;;
24335;SDS011;33098;52.400;16.880;2023-04-19T14:42:17;12.00;;;8.30;;
24335;SDS011;33098;52.400;16.880;2023-04-19T14:44:48;12.30;;;8.60;;
24335;SDS011;33098;52.400;16.880;2023-04-19T14:47:16;11.50;;;7.40;;
24335;SDS011;33098;52.400;16.880;2023-04-19T14:49:47;13.60;;;7.60;;
24335;SDS011;33098;52.400;16.880;2023-04-19T14:52:16;14.50;;;7.50;;
24335;SDS011;33098;52.400;16.880;2023-04-19T14:54:43;10.50;;;7.30;;
24335;SDS011;33098;52.400;16.880;2023-04-19T14:57:11;11.80;;;7.50;;
24335;SDS011;33098;52.400;16.880;2023-04-19T14:59:41;13.60;;;7.50;;
24335;SDS011;33098;52.400;16.880;2023-04-19T15:02:12;12.20;;;7.20;;
24335;SDS011;33098;52.400;16.880;2023-04-19T15:04:39;11.60;;;7.20;;
24335;SDS011;33098;52.400;16.880;2023-04-19T15:07:09;9.50;;;6.40;;
24335;SDS011;33098;52.400;16.880;2023-04-19T15:09:38;10.00;;;6.60;;
24335;SDS011;33098;52.400;16.880;2023-04-19T15:12:07;11.70;;;6.60;;